Time;durP1;ratioP1;P1;durP2;ratioP2;P2;SDS_P1;SDS_P2;PMS_P1;PMS_P2;Temp;Humidity;BMP_temperature;BMP_pressure;BME280_temperature;BME280_humidity;BME280_pressure;Samples;Min_cycle;Max_cycle;Signal;HPM_P1;HPM_P2
2023/07/01 00:01:46;;;;;;;;;;;15.40;99.90;;;;;;5019132;28;19901;-58
2023/07/01 00:04:12;;;;;;;;;;;15.40;99.90;;;;;;5017548;28;20384;-57
2023/07/01 00:06:41;;;;;;;;;;;15.30;99.90;;;;;;5017191;28;20289;-57
2023/07/01 00:09:08;;;;;;;;;;;15.30;99.90;;;;;;5015755;28;19920;-58
2023/07/01 00:11:33;;;;;;;;;;;15.20;99.90;;;;;;5020741;28;20330;-58
2023/07/01 00:13:59;;;;;;;;;;;15.20;99.90;;;;;;5023064;28;20012;-58
2023/07/01 00:16:24;;;;;;;;;;;15.10;99.90;;;;;;5016833;28;19913;-58
2023/07/01 00:18:50;;;;;;;;;;;15.10;99.90;;;;;;5020635;28;20284;-58
2023/07/01 00:21:15;;;;;;;;;;;15.10;99.90;;;;;;5017519;28;19971;-57
2023/07/01 00:23:41;;;;;;;;;;;15.10;99.90;;;;;;5023370;28;19941;-57
2023/07/01 00:26:06;;;;;;;;;;;15.10;99.90;;;;;;5016894;28;20035;-56
2023/07/01 00:28:32;;;;;;;;;;;15.00;99.90;;;;;;5016365;28;19963;-56
2023/07/01 00:30:57;;;;;;;;;;;14.90;99.90;;;;;;5021051;28;19915;-57
2023/07/01 00:33:23;;;;;;;;;;;14.90;99.90;;;;;;5020263;28;19967;-56
2023/07/01 00:35:48;;;;;;;;;;;14.80;99.90;;;;;;5017575;28;20400;-58
2023/07/01 00:38:14;;;;;;;;;;;14.70;99.90;;;;;;5021773;28;19916;-57
2023/07/01 00:40:39;;;;;;;;;;;14.70;99.90;;;;;;5020345;28;19952;-57
2023/07/01 00:43:05;;;;;;;;;;;14.70;99.90;;;;;;5019058;28;20028;-57
2023/07/01 00:45:30;;;;;;;;;;;14.70;99.90;;;;;;5019537;28;20546;-58
2023/07/01 00:47:56;;;;;;;;;;;14.70;99.90;;;;;;5019383;28;19959;-57
2023/07/01 00:50:21;;;;;;;;;;;14.60;99.90;;;;;;5018626;28;19917;-57
2023/07/01 00:52:47;;;;;;;;;;;14.60;99.90;;;;;;5022052;28;19948;-59
2023/07/01 00:55:12;;;;;;;;;;;14.50;99.90;;;;;;5021787;28;20346;-59
2023/07/01 00:57:38;;;;;;;;;;;14.50;99.90;;;;;;5023164;28;20326;-60
2023/07/01 01:00:10;;;;;;;;;;;14.40;99.90;;;;;;5016177;28;20012;-58
2023/07/01 01:02:55;;;;;;;;;;;14.20;99.90;;;;;;5020516;28;20309;-60
2023/07/01 01:05:30;;;;;;;;;;;14.00;99.90;;;;;;5017561;28;19916;-58
2023/07/01 01:08:03;;;;;;;;;;;13.90;99.90;;;;;;5019753;28;19932;-60
2023/07/01 01:10:31;;;;;;;;;;;13.80;99.90;;;;;;5019472;28;20011;-60
2023/07/01 01:12:57;;;;;;;;;;;13.80;99.90;;;;;;5017011;28;19909;-60
2023/07/01 01:15:26;;;;;;;;;;;13.80;99.90;;;;;;5021406;28;19916;-58
2023/07/01 01:17:55;;;;;;;;;;;13.80;99.90;;;;;;5020373;28;19909;-59
2023/07/01 01:20:21;;;;;;;;;;;13.80;99.90;;;;;;5018340;28;20533;-58
2023/07/01 01:22:49;;;;;;;;;;;13.70;99.90;;;;;;5020006;28;20812;-59
2023/07/01 01:25:27;;;;;;;;;;;13.70;99.90;;;;;;5016084;28;19917;-59
2023/07/01 01:27:53;;;;;;;;;;;13.60;99.90;;;;;;5019967;28;19955;-58
2023/07/01 01:30:20;;;;;;;;;;;13.50;99.90;;;;;;5019125;28;19913;-60
2023/07/01 01:32:46;;;;;;;;;;;13.40;99.90;;;;;;5016491;28;20272;-58
2023/07/01 01:35:12;;;;;;;;;;;13.40;99.90;;;;;;5020741;28;20593;-58
2023/07/01 01:38:01;;;;;;;;;;;13.40;99.90;;;;;;5020742;28;19909;-59
2023/07/01 01:40:29;;;;;;;;;;;13.40;99.90;;;;;;5000921;28;19948;-59
2023/07/01 01:42:59;;;;;;;;;;;13.40;99.90;;;;;;5015716;28;19928;-58
2023/07/01 01:45:25;;;;;;;;;;;13.50;99.90;;;;;;5018495;28;19992;-60
2023/07/01 01:47:50;;;;;;;;;;;13.50;99.90;;;;;;5019226;28;20000;-58
2023/07/01 01:50:18;;;;;;;;;;;13.50;99.90;;;;;;5019284;28;19916;-58
2023/07/01 01:52:44;;;;;;;;;;;13.50;99.90;;;;;;5015204;28;19920;-58
2023/07/01 01:55:11;;;;;;;;;;;13.60;99.90;;;;;;5017729;28;19922;-59
2023/07/01 01:57:37;;;;;;;;;;;13.50;99.90;;;;;;5015965;28;19988;-59
2023/07/01 02:00:08;;;;;;;;;;;13.30;99.90;;;;;;5021239;28;19914;-59
2023/07/01 02:02:34;;;;;;;;;;;13.20;99.90;;;;;;5019464;28;19916;-59
2023/07/01 02:05:00;;;;;;;;;;;13.00;99.90;;;;;;5019890;28;20361;-59
2023/07/01 02:07:25;;;;;;;;;;;12.80;99.90;;;;;;5017342;28;19916;-60
2023/07/01 02:09:51;;;;;;;;;;;12.70;99.90;;;;;;5022149;28;19909;-60
2023/07/01 02:12:16;;;;;;;;;;;12.60;99.90;;;;;;5018594;28;19910;-60
2023/07/01 02:14:42;;;;;;;;;;;12.60;99.90;;;;;;5020976;28;19913;-59
2023/07/01 02:17:08;;;;;;;;;;;12.60;99.90;;;;;;5019004;28;19932;-58
2023/07/01 02:19:33;;;;;;;;;;;12.70;99.90;;;;;;5014788;28;19901;-60
2023/07/01 02:21:59;;;;;;;;;;;12.70;99.90;;;;;;5017203;28;19913;-59
2023/07/01 02:24:24;;;;;;;;;;;12.70;99.90;;;;;;5013142;28;19959;-59
2023/07/01 02:26:50;;;;;;;;;;;12.70;99.90;;;;;;5011961;28;20036;-59
2023/07/01 02:29:16;;;;;;;;;;;12.70;99.90;;;;;;5018865;28;19920;-58
2023/07/01 02:31:41;;;;;;;;;;;12.70;99.90;;;;;;5021636;28;19917;-60
2023/07/01 02:34:07;;;;;;;;;;;12.60;99.90;;;;;;5018235;28;19924;-59
2023/07/01 02:36:32;;;;;;;;;;;12.60;99.90;;;;;;5013392;28;19932;-58
2023/07/01 02:38:58;;;;;;;;;;;12.60;99.90;;;;;;5021536;28;20368;-58
2023/07/01 02:41:23;;;;;;;;;;;12.60;99.90;;;;;;5016862;28;19913;-58
2023/07/01 02:43:49;;;;;;;;;;;12.50;99.90;;;;;;5015994;28;19909;-59
2023/07/01 02:46:14;;;;;;;;;;;12.50;99.90;;;;;;5016283;28;19913;-60
2023/07/01 02:48:39;;;;;;;;;;;12.40;99.90;;;;;;5017899;28;19920;-59
2023/07/01 02:51:06;;;;;;;;;;;12.30;99.90;;;;;;5019683;28;20383;-60
2023/07/01 02:53:32;;;;;;;;;;;12.20;99.90;;;;;;5018246;28;19952;-57
2023/07/01 02:55:58;;;;;;;;;;;12.20;99.90;;;;;;5021710;28;19921;-58
2023/07/01 02:58:26;;;;;;;;;;;12.10;99.90;;;;;;5015586;28;19913;-58
2023/07/01 03:00:52;;;;;;;;;;;12.10;99.90;;;;;;5019450;28;19920;-59
2023/07/01 03:03:17;;;;;;;;;;;12.10;99.90;;;;;;5016947;28;20292;-60
2023/07/01 03:05:44;;;;;;;;;;;12.10;99.90;;;;;;5013397;28;19913;-59
2023/07/01 03:08:09;;;;;;;;;;;12.10;99.90;;;;;;5020590;28;19915;-59
2023/07/01 03:10:35;;;;;;;;;;;12.10;99.90;;;;;;5019045;28;19913;-58
2023/07/01 03:13:00;;;;;;;;;;;12.10;99.90;;;;;;5016996;28;20416;-60
2023/07/01 03:15:26;;;;;;;;;;;12.10;99.90;;;;;;5015861;28;20368;-58
2023/07/01 03:17:52;;;;;;;;;;;12.10;99.90;;;;;;5020552;28;20394;-61
2023/07/01 03:20:22;;;;;;;;;;;12.10;99.90;;;;;;5018783;28;19915;-59
2023/07/01 03:22:51;;;;;;;;;;;12.10;99.90;;;;;;5019403;28;19915;-57
2023/07/01 03:25:17;;;;;;;;;;;12.10;99.90;;;;;;5016407;28;19919;-59
2023/07/01 03:27:43;;;;;;;;;;;12.10;99.90;;;;;;5018365;28;19913;-60
2023/07/01 03:30:13;;;;;;;;;;;12.10;99.90;;;;;;5016563;28;20392;-58
2023/07/01 03:32:39;;;;;;;;;;;12.10;99.90;;;;;;5015344;28;19941;-59
2023/07/01 03:35:05;;;;;;;;;;;12.10;99.90;;;;;;5015934;28;19909;-58
2023/07/01 03:37:31;;;;;;;;;;;12.10;99.90;;;;;;5015190;28;19931;-58
2023/07/01 03:39:56;;;;;;;;;;;12.10;99.90;;;;;;5015957;28;20340;-60
2023/07/01 03:42:21;;;;;;;;;;;12.10;99.90;;;;;;5019866;28;20257;-59
2023/07/01 03:44:47;;;;;;;;;;;12.10;99.90;;;;;;5023793;28;19967;-58
2023/07/01 03:47:13;;;;;;;;;;;12.10;99.90;;;;;;5022945;28;19916;-59
2023/07/01 03:49:38;;;;;;;;;;;12.20;99.90;;;;;;5022423;28;19909;-58
2023/07/01 03:52:04;;;;;;;;;;;12.20;99.90;;;;;;5022101;28;19963;-60
2023/07/01 03:54:29;;;;;;;;;;;12.30;99.90;;;;;;5017149;28;20377;-58
2023/07/01 03:56:55;;;;;;;;;;;12.30;99.90;;;;;;5021538;28;20351;-60
2023/07/01 03:59:20;;;;;;;;;;;12.30;99.90;;;;;;5019200;28;19916;-59
2023/07/01 04:01:46;;;;;;;;;;;12.30;99.90;;;;;;5025151;28;19940;-58
2023/07/01 04:04:11;;;;;;;;;;;12.40;99.90;;;;;;5021394;28;19944;-59
2023/07/01 04:06:37;;;;;;;;;;;12.40;99.90;;;;;;5020411;28;20091;-60
2023/07/01 04:09:03;;;;;;;;;;;12.40;99.90;;;;;;5021907;28;20296;-59
2023/07/01 04:11:30;;;;;;;;;;;12.50;99.90;;;;;;5020601;28;19950;-59
2023/07/01 04:13:57;;;;;;;;;;;12.40;99.90;;;;;;5020799;28;20557;-59
2023/07/01 04:16:23;;;;;;;;;;;12.50;99.90;;;;;;5021546;28;20008;-57
2023/07/01 04:18:49;;;;;;;;;;;12.60;99.90;;;;;;5019530;28;20040;-60
2023/07/01 04:21:14;;;;;;;;;;;12.60;99.90;;;;;;5020971;28;19920;-59
2023/07/01 04:23:40;;;;;;;;;;;12.60;99.90;;;;;;5020279;28;19920;-58
2023/07/01 04:26:06;;;;;;;;;;;12.60;99.90;;;;;;5021882;28;19991;-58
2023/07/01 04:28:31;;;;;;;;;;;12.70;99.90;;;;;;5022652;28;19947;-58
2023/07/01 04:30:57;;;;;;;;;;;12.80;99.90;;;;;;5022759;28;20008;-58
2023/07/01 04:33:22;;;;;;;;;;;12.80;99.90;;;;;;5022196;28;19971;-57
2023/07/01 04:35:48;;;;;;;;;;;12.90;99.90;;;;;;5018131;28;20118;-58
2023/07/01 04:38:13;;;;;;;;;;;12.90;99.90;;;;;;5020788;28;19919;-59
2023/07/01 04:40:39;;;;;;;;;;;12.90;99.90;;;;;;5025919;28;19917;-59
2023/07/01 04:43:04;;;;;;;;;;;13.00;99.90;;;;;;5019573;28;19917;-59
2023/07/01 04:45:33;;;;;;;;;;;13.10;99.90;;;;;;5017428;28;19921;-58
2023/07/01 04:47:59;;;;;;;;;;;13.10;99.90;;;;;;5018839;28;19924;-59
2023/07/01 04:50:25;;;;;;;;;;;13.20;99.90;;;;;;5020012;28;20371;-59
2023/07/01 04:52:50;;;;;;;;;;;13.30;99.90;;;;;;5018694;28;19909;-59
2023/07/01 04:55:16;;;;;;;;;;;13.30;99.90;;;;;;5017703;28;19921;-58
2023/07/01 04:57:42;;;;;;;;;;;13.20;99.90;;;;;;5023851;28;19917;-59
2023/07/01 05:00:10;;;;;;;;;;;13.20;99.90;;;;;;5018098;28;19920;-60
2023/07/01 05:02:35;;;;;;;;;;;13.30;99.90;;;;;;5019549;28;20485;-58
2023/07/01 05:05:01;;;;;;;;;;;13.30;99.90;;;;;;5019137;28;19916;-60
2023/07/01 05:07:26;;;;;;;;;;;13.30;99.90;;;;;;5019925;28;19920;-59
2023/07/01 05:09:52;;;;;;;;;;;13.30;99.90;;;;;;5018885;28;19991;-59
2023/07/01 05:12:17;;;;;;;;;;;13.40;99.90;;;;;;5019062;28;20036;-60
2023/07/01 05:14:43;;;;;;;;;;;13.40;99.90;;;;;;5021953;28;19917;-58
2023/07/01 05:17:09;;;;;;;;;;;13.50;99.90;;;;;;5015489;28;19914;-58
2023/07/01 05:19:34;;;;;;;;;;;13.60;99.90;;;;;;4999132;28;19908;-60
2023/07/01 05:22:00;;;;;;;;;;;13.70;99.90;;;;;;5000195;28;19916;-60
2023/07/01 05:24:25;;;;;;;;;;;13.80;99.90;;;;;;4999854;28;19913;-60
2023/07/01 05:26:51;;;;;;;;;;;13.90;99.90;;;;;;5001148;28;20365;-60
2023/07/01 05:29:20;;;;;;;;;;;14.00;99.90;;;;;;4997237;28;19988;-59
2023/07/01 05:31:48;;;;;;;;;;;14.20;99.90;;;;;;5002493;28;19929;-59
2023/07/01 05:34:14;;;;;;;;;;;14.40;99.90;;;;;;4999533;28;19959;-59
2023/07/01 05:36:39;;;;;;;;;;;14.50;99.90;;;;;;5000699;28;20378;-59
2023/07/01 05:39:05;;;;;;;;;;;14.70;99.90;;;;;;4997253;28;20012;-60
2023/07/01 05:41:30;;;;;;;;;;;14.70;99.90;;;;;;4998102;28;19909;-58
2023/07/01 05:43:56;;;;;;;;;;;14.90;99.90;;;;;;4998960;28;19905;-59
2023/07/01 05:46:21;;;;;;;;;;;15.00;99.90;;;;;;4997044;28;20278;-59
2023/07/01 05:48:47;;;;;;;;;;;15.00;99.90;;;;;;4998513;28;19949;-59
2023/07/01 05:51:12;;;;;;;;;;;15.10;99.90;;;;;;5009162;28;20004;-60
2023/07/01 05:53:38;;;;;;;;;;;15.20;99.90;;;;;;5019276;28;20443;-58
2023/07/01 05:56:03;;;;;;;;;;;15.20;99.90;;;;;;5015162;28;19913;-59
2023/07/01 05:58:29;;;;;;;;;;;15.30;99.90;;;;;;5017598;28;19920;-60
2023/07/01 06:00:54;;;;;;;;;;;15.40;99.90;;;;;;5017542;28;19920;-61
2023/07/01 06:03:20;;;;;;;;;;;15.60;99.90;;;;;;5018665;28;20442;-60
2023/07/01 06:05:45;;;;;;;;;;;15.70;99.90;;;;;;5011558;28;20020;-58
2023/07/01 06:08:11;;;;;;;;;;;15.70;99.90;;;;;;5003226;28;19948;-59
2023/07/01 06:10:37;;;;;;;;;;;15.80;99.90;;;;;;5019582;28;20004;-60
2023/07/01 06:13:02;;;;;;;;;;;15.80;99.90;;;;;;5019662;28;19963;-59
2023/07/01 06:15:28;;;;;;;;;;;15.80;99.90;;;;;;5017677;28;20371;-60
2023/07/01 06:17:53;;;;;;;;;;;15.80;99.90;;;;;;5018255;28;19919;-60
2023/07/01 06:20:19;;;;;;;;;;;15.80;99.90;;;;;;5018478;28;19905;-58
2023/07/01 06:22:44;;;;;;;;;;;15.90;99.90;;;;;;5018649;28;19905;-58
2023/07/01 06:25:10;;;;;;;;;;;15.90;99.90;;;;;;5016148;28;19995;-59
2023/07/01 06:27:38;;;;;;;;;;;16.00;99.90;;;;;;5019396;28;20269;-59
2023/07/01 06:30:04;;;;;;;;;;;16.00;99.90;;;;;;5018822;28;19912;-59
2023/07/01 06:32:30;;;;;;;;;;;16.10;99.90;;;;;;5016622;28;19917;-59
2023/07/01 06:34:56;;;;;;;;;;;16.10;99.90;;;;;;5017678;28;19925;-60
2023/07/01 06:37:22;;;;;;;;;;;16.20;99.90;;;;;;5017304;28;20459;-59
2023/07/01 06:39:47;;;;;;;;;;;16.20;99.90;;;;;;5012493;28;19909;-61
2023/07/01 06:42:13;;;;;;;;;;;16.30;99.90;;;;;;5017655;28;19995;-60
2023/07/01 06:44:38;;;;;;;;;;;16.40;99.90;;;;;;5016652;28;19921;-59
2023/07/01 06:47:05;;;;;;;;;;;16.50;99.90;;;;;;5020171;28;19962;-60
2023/07/01 06:49:31;;;;;;;;;;;16.50;99.90;;;;;;5016830;28;20341;-59
2023/07/01 06:51:57;;;;;;;;;;;16.60;99.90;;;;;;5015243;28;19964;-60
2023/07/01 06:54:22;;;;;;;;;;;16.60;99.90;;;;;;5016792;28;19917;-58
2023/07/01 06:56:48;;;;;;;;;;;16.70;99.90;;;;;;5018968;28;19909;-58
2023/07/01 06:59:13;;;;;;;;;;;16.80;99.90;;;;;;5019701;28;19909;-60
2023/07/01 07:01:39;;;;;;;;;;;16.80;99.90;;;;;;5019867;28;19913;-59
2023/07/01 07:04:05;;;;;;;;;;;16.90;99.90;;;;;;5017261;28;19921;-60
2023/07/01 07:06:30;;;;;;;;;;;17.10;99.90;;;;;;5015416;28;20337;-59
2023/07/01 07:08:59;;;;;;;;;;;17.20;99.90;;;;;;5016874;28;19963;-59
2023/07/01 07:11:24;;;;;;;;;;;17.30;99.90;;;;;;5016893;28;19909;-59
2023/07/01 07:13:50;;;;;;;;;;;17.40;99.90;;;;;;5018664;28;19912;-60
2023/07/01 07:16:15;;;;;;;;;;;17.50;99.90;;;;;;5017701;28;19940;-60
2023/07/01 07:18:41;;;;;;;;;;;17.60;99.90;;;;;;5017728;28;19921;-59
2023/07/01 07:21:07;;;;;;;;;;;17.80;99.90;;;;;;5021964;28;19971;-60
2023/07/01 07:23:32;;;;;;;;;;;17.90;99.90;;;;;;5016731;28;20432;-59
2023/07/01 07:25:58;;;;;;;;;;;18.00;99.90;;;;;;5023570;28;19917;-58
2023/07/01 07:28:23;;;;;;;;;;;18.10;99.90;;;;;;5021659;28;19909;-59
2023/07/01 07:30:49;;;;;;;;;;;18.30;99.90;;;;;;5018988;28;19932;-60
2023/07/01 07:33:14;;;;;;;;;;;18.30;99.90;;;;;;5021098;28;19957;-59
2023/07/01 07:35:40;;;;;;;;;;;18.40;99.90;;;;;;5019002;28;20514;-61
2023/07/01 07:38:05;;;;;;;;;;;18.50;99.90;;;;;;5018268;28;19914;-59
2023/07/01 07:40:31;;;;;;;;;;;18.60;99.90;;;;;;5001953;28;20262;-59
2023/07/01 07:42:56;;;;;;;;;;;18.60;99.90;;;;;;5000290;28;19976;-59
2023/07/01 07:45:22;;;;;;;;;;;18.80;99.90;;;;;;4999197;28;20366;-59
2023/07/01 07:47:47;;;;;;;;;;;18.90;99.90;;;;;;4998012;28;19910;-60
2023/07/01 07:50:13;;;;;;;;;;;19.10;99.90;;;;;;5002154;28;20000;-59
2023/07/01 07:52:38;;;;;;;;;;;19.30;99.90;;;;;;4997573;28;19945;-60
2023/07/01 07:55:04;;;;;;;;;;;19.40;99.90;;;;;;5000852;28;19918;-59
2023/07/01 07:57:30;;;;;;;;;;;19.60;99.90;;;;;;5001690;28;19909;-60
2023/07/01 07:59:55;;;;;;;;;;;19.80;99.90;;;;;;4998168;28;19961;-60
2023/07/01 08:02:21;;;;;;;;;;;20.00;99.90;;;;;;5001742;28;19910;-59
2023/07/01 08:04:47;;;;;;;;;;;20.20;99.90;;;;;;5001700;28;19909;-60
2023/07/01 08:07:13;;;;;;;;;;;20.20;99.90;;;;;;5000937;28;20453;-60
2023/07/01 08:09:39;;;;;;;;;;;20.10;99.90;;;;;;5000913;28;19921;-60
2023/07/01 08:12:05;;;;;;;;;;;20.00;99.90;;;;;;4999862;28;20008;-61
2023/07/01 08:14:31;;;;;;;;;;;19.80;99.90;;;;;;5001389;28;19914;-60
2023/07/01 08:16:57;;;;;;;;;;;19.80;99.90;;;;;;4998595;28;19923;-60
2023/07/01 08:19:23;;;;;;;;;;;19.70;99.90;;;;;;5003375;28;19905;-59
2023/07/01 08:21:49;;;;;;;;;;;19.60;99.90;;;;;;5004446;28;19916;-59
2023/07/01 08:24:15;;;;;;;;;;;19.50;99.90;;;;;;5000135;28;19939;-59
2023/07/01 08:26:41;;;;;;;;;;;19.50;99.90;;;;;;5000197;28;19964;-60
2023/07/01 08:29:08;;;;;;;;;;;19.60;99.90;;;;;;4998934;28;19967;-59
2023/07/01 08:31:33;;;;;;;;;;;19.80;99.90;;;;;;4999152;28;19935;-60
2023/07/01 08:33:59;;;;;;;;;;;20.00;99.90;;;;;;5001393;28;19964;-61
2023/07/01 08:36:25;;;;;;;;;;;20.10;99.90;;;;;;5000920;28;19941;-59
2023/07/01 08:38:50;;;;;;;;;;;20.10;99.90;;;;;;5000861;28;19976;-60
2023/07/01 08:41:17;;;;;;;;;;;20.20;99.90;;;;;;4998597;28;19956;-61
2023/07/01 08:43:45;;;;;;;;;;;20.20;99.90;;;;;;4998290;28;20338;-60
2023/07/01 08:46:12;;;;;;;;;;;20.20;99.90;;;;;;5006554;28;19914;-60
2023/07/01 08:48:38;;;;;;;;;;;20.30;99.90;;;;;;5002769;28;19933;-59
2023/07/01 08:51:11;;;;;;;;;;;20.40;99.90;;;;;;5000657;28;19933;-58
2023/07/01 08:53:37;;;;;;;;;;;20.60;99.90;;;;;;4998795;28;20350;-59
2023/07/01 08:56:03;;;;;;;;;;;20.80;99.90;;;;;;4999380;28;19909;-59
2023/07/01 08:58:29;;;;;;;;;;;21.00;99.90;;;;;;4999429;28;19989;-59
2023/07/01 09:00:56;;;;;;;;;;;21.10;99.90;;;;;;5001905;28;20033;-59
2023/07/01 09:03:22;;;;;;;;;;;21.30;99.90;;;;;;5006301;28;19918;-58
2023/07/01 09:05:47;;;;;;;;;;;21.50;99.90;;;;;;4997843;28;20397;-57
2023/07/01 09:08:13;;;;;;;;;;;21.60;99.50;;;;;;5000871;28;19909;-58
2023/07/01 09:10:38;;;;;;;;;;;21.50;96.60;;;;;;5000896;28;19912;-59
2023/07/01 09:13:11;;;;;;;;;;;21.60;99.00;;;;;;4993928;28;19913;-58
2023/07/01 09:15:49;;;;;;;;;;;21.70;93.70;;;;;;5001670;28;20428;-58
2023/07/01 09:18:18;;;;;;;;;;;21.70;96.10;;;;;;4999784;28;19914;-59
2023/07/01 09:20:43;;;;;;;;;;;21.70;91.90;;;;;;4999762;28;19917;-58
2023/07/01 09:23:09;;;;;;;;;;;21.80;90.40;;;;;;4997453;28;20437;-57
2023/07/01 09:25:34;;;;;;;;;;;22.00;98.40;;;;;;5000274;28;19954;-59
2023/07/01 09:28:00;;;;;;;;;;;22.00;96.60;;;;;;4998068;28;19914;-58
2023/07/01 09:30:26;;;;;;;;;;;22.10;90.70;;;;;;4998494;28;19937;-57
2023/07/01 09:33:07;;;;;;;;;;;22.30;87.20;;;;;;5000248;28;19964;-60
2023/07/01 09:35:43;;;;;;;;;;;22.50;83.80;;;;;;4997721;28;20039;-59
2023/07/01 09:38:08;;;;;;;;;;;22.80;83.70;;;;;;5000544;28;19906;-58
2023/07/01 09:40:34;;;;;;;;;;;22.90;82.30;;;;;;4996821;28;19901;-58
2023/07/01 09:42:59;;;;;;;;;;;22.90;75.60;;;;;;4996777;28;19914;-59
2023/07/01 09:45:25;;;;;;;;;;;22.70;70.50;;;;;;5001253;28;19913;-58
2023/07/01 09:47:52;;;;;;;;;;;22.60;75.00;;;;;;5000316;28;19917;-59
2023/07/01 09:50:26;;;;;;;;;;;22.60;74.00;;;;;;4997532;28;20365;-58
2023/07/01 09:52:53;;;;;;;;;;;22.70;73.40;;;;;;4999413;28;19906;-59
2023/07/01 09:55:19;;;;;;;;;;;22.90;73.10;;;;;;4997097;28;19910;-59
2023/07/01 09:57:45;;;;;;;;;;;23.00;74.40;;;;;;4999165;28;19964;-58
2023/07/01 10:00:13;;;;;;;;;;;23.00;70.30;;;;;;4996582;28;19921;-59
2023/07/01 10:02:38;;;;;;;;;;;22.90;69.30;;;;;;4996390;28;20437;-59
2023/07/01 10:05:05;;;;;;;;;;;22.70;71.40;;;;;;4999796;28;19912;-58
2023/07/01 10:07:30;;;;;;;;;;;22.70;73.50;;;;;;4998397;28;19906;-59
2023/07/01 10:09:57;;;;;;;;;;;22.90;71.20;;;;;;4997157;28;19917;-58
2023/07/01 10:12:23;;;;;;;;;;;23.00;66.80;;;;;;4998966;28;19921;-57
2023/07/01 10:14:51;;;;;;;;;;;22.90;65.80;;;;;;4996494;28;19914;-59
2023/07/01 10:17:17;;;;;;;;;;;22.60;66.60;;;;;;4997631;28;19964;-59
2023/07/01 10:19:46;;;;;;;;;;;22.50;68.10;;;;;;5000799;28;20024;-57
2023/07/01 10:22:29;;;;;;;;;;;22.60;67.20;;;;;;5001538;28;19913;-57
2023/07/01 10:24:55;;;;;;;;;;;22.70;68.90;;;;;;5001875;28;19913;-58
2023/07/01 10:27:39;;;;;;;;;;;22.80;67.00;;;;;;4997252;28;19971;-59
2023/07/01 10:30:05;;;;;;;;;;;23.00;67.70;;;;;;4997758;28;19917;-58
2023/07/01 10:32:31;;;;;;;;;;;23.10;67.90;;;;;;4999179;28;19923;-57
2023/07/01 10:34:58;;;;;;;;;;;23.10;64.30;;;;;;4996959;28;19913;-58
2023/07/01 10:37:27;;;;;;;;;;;23.00;66.00;;;;;;4996946;28;19920;-58
2023/07/01 10:39:53;;;;;;;;;;;22.90;66.20;;;;;;4998893;28;20032;-59
2023/07/01 10:42:31;;;;;;;;;;;22.90;68.00;;;;;;4997145;28;19909;-59
2023/07/01 10:45:12;;;;;;;;;;;23.00;67.00;;;;;;4995660;28;20459;-58
2023/07/01 10:47:37;;;;;;;;;;;23.00;69.30;;;;;;4997964;28;19921;-58
2023/07/01 10:50:07;;;;;;;;;;;22.90;69.50;;;;;;5000419;28;19905;-58
2023/07/01 10:52:52;;;;;;;;;;;22.90;67.60;;;;;;4998953;28;19909;-57
2023/07/01 10:55:36;;;;;;;;;;;23.00;63.60;;;;;;4997570;28;19987;-59
2023/07/01 10:58:15;;;;;;;;;;;23.10;64.00;;;;;;4996091;28;19960;-57
2023/07/01 11:00:41;;;;;;;;;;;23.20;64.30;;;;;;4997934;28;20404;-58
2023/07/01 11:03:10;;;;;;;;;;;23.20;64.10;;;;;;4997935;28;19945;-58
2023/07/01 11:05:36;;;;;;;;;;;23.20;67.20;;;;;;4998681;28;19910;-59
2023/07/01 11:08:08;;;;;;;;;;;23.20;64.30;;;;;;4996958;28;19910;-58
2023/07/01 11:10:34;;;;;;;;;;;23.40;65.90;;;;;;5018012;28;20250;-57
2023/07/01 11:13:01;;;;;;;;;;;23.60;65.40;;;;;;5016160;28;19909;-57
2023/07/01 11:15:27;;;;;;;;;;;23.90;63.70;;;;;;5017360;28;19947;-57
2023/07/01 11:17:54;;;;;;;;;;;24.20;65.80;;;;;;5017973;28;19972;-57
2023/07/01 11:20:20;;;;;;;;;;;24.30;66.40;;;;;;5017731;28;19959;-59
2023/07/01 11:22:45;;;;;;;;;;;24.40;62.50;;;;;;5018860;28;19960;-57
2023/07/01 11:25:11;;;;;;;;;;;24.50;61.00;;;;;;5014810;28;19916;-57
2023/07/01 11:27:43;;;;;;;;;;;24.60;62.70;;;;;;5016104;28;19916;-58
2023/07/01 11:30:09;;;;;;;;;;;24.60;58.90;;;;;;5017357;28;19924;-56
2023/07/01 11:32:34;;;;;;;;;;;24.50;59.00;;;;;;5018164;28;19920;-59
2023/07/01 11:35:00;;;;;;;;;;;24.40;57.70;;;;;;5018155;28;19963;-60
2023/07/01 11:37:26;;;;;;;;;;;24.50;58.10;;;;;;5016507;28;20008;-59
2023/07/01 11:39:52;;;;;;;;;;;24.60;59.30;;;;;;5030452;28;19917;-59
2023/07/01 11:42:18;;;;;;;;;;;24.80;60.30;;;;;;5018068;28;19909;-58
2023/07/01 11:44:43;;;;;;;;;;;25.00;57.70;;;;;;5018103;28;19917;-57
2023/07/01 11:47:13;;;;;;;;;;;25.20;59.20;;;;;;5017077;28;19913;-57
2023/07/01 11:49:39;;;;;;;;;;;25.30;57.80;;;;;;5019835;28;20352;-58
2023/07/01 11:52:06;;;;;;;;;;;25.30;55.80;;;;;;5016926;28;19944;-57
2023/07/01 11:54:47;;;;;;;;;;;25.40;56.00;;;;;;5017179;28;19964;-58
2023/07/01 11:57:14;;;;;;;;;;;25.50;54.20;;;;;;5017823;28;19948;-60
2023/07/01 11:59:40;;;;;;;;;;;25.50;56.10;;;;;;5018615;28;19913;-58
2023/07/01 12:02:05;;;;;;;;;;;25.60;54.40;;;;;;5020126;28;19905;-57
2023/07/01 12:04:31;;;;;;;;;;;25.50;55.40;;;;;;5019612;28;19905;-58
2023/07/01 12:07:06;;;;;;;;;;;25.50;54.80;;;;;;5020685;28;19913;-58
2023/07/01 12:09:32;;;;;;;;;;;25.40;55.00;;;;;;5018776;28;19915;-57
2023/07/01 12:11:58;;;;;;;;;;;25.30;57.10;;;;;;5025034;28;19913;-57
2023/07/01 12:14:24;;;;;;;;;;;25.30;53.20;;;;;;5020980;28;19917;-57
2023/07/01 12:16:50;;;;;;;;;;;25.30;54.10;;;;;;5020669;28;19905;-58
2023/07/01 12:19:16;;;;;;;;;;;25.20;55.20;;;;;;5017604;28;20429;-58
2023/07/01 12:21:43;;;;;;;;;;;25.10;56.00;;;;;;5021554;28;19910;-57
2023/07/01 12:24:29;;;;;;;;;;;25.00;56.20;;;;;;5020214;28;19935;-58
2023/07/01 12:26:55;;;;;;;;;;;25.00;55.40;;;;;;5021428;28;19909;-58
2023/07/01 12:29:22;;;;;;;;;;;25.10;53.90;;;;;;5018315;28;19944;-59
2023/07/01 12:31:48;;;;;;;;;;;25.30;54.90;;;;;;5017723;28;19924;-58
2023/07/01 12:34:14;;;;;;;;;;;25.60;55.30;;;;;;5020567;28;19909;-57
2023/07/01 12:36:41;;;;;;;;;;;25.80;54.00;;;;;;5020269;28;19916;-57
2023/07/01 12:39:08;;;;;;;;;;;25.80;51.80;;;;;;5016492;28;20419;-58
2023/07/01 12:41:36;;;;;;;;;;;25.80;52.00;;;;;;5023058;28;19924;-59
2023/07/01 12:44:07;;;;;;;;;;;25.90;49.40;;;;;;5020961;28;19905;-58
2023/07/01 12:46:32;;;;;;;;;;;26.00;52.10;;;;;;5019500;28;20272;-59
2023/07/01 12:49:00;;;;;;;;;;;26.00;51.50;;;;;;5016745;28;19916;-58
2023/07/01 12:51:26;;;;;;;;;;;25.90;51.00;;;;;;5019511;28;19936;-58
2023/07/01 12:53:53;;;;;;;;;;;25.80;51.40;;;;;;5019409;28;19909;-59
2023/07/01 12:56:19;;;;;;;;;;;25.70;50.50;;;;;;5020997;28;19920;-58
2023/07/01 12:58:44;;;;;;;;;;;25.60;51.70;;;;;;5020538;28;19944;-58
2023/07/01 13:01:10;;;;;;;;;;;25.70;52.70;;;;;;5019858;28;19952;-58
2023/07/01 13:03:35;;;;;;;;;;;25.70;52.30;;;;;;5014656;28;19917;-58
2023/07/01 13:06:07;;;;;;;;;;;25.80;52.10;;;;;;5021379;28;19992;-59
2023/07/01 13:08:33;;;;;;;;;;;25.80;52.80;;;;;;5020172;28;19915;-60
2023/07/01 13:10:58;;;;;;;;;;;25.80;51.20;;;;;;5020900;28;19910;-58
2023/07/01 13:13:24;;;;;;;;;;;25.70;51.80;;;;;;5019404;28;20008;-58
2023/07/01 13:15:49;;;;;;;;;;;25.60;52.10;;;;;;5018335;28;19920;-58
2023/07/01 13:18:18;;;;;;;;;;;25.40;52.30;;;;;;5021310;28;19912;-58
2023/07/01 13:20:43;;;;;;;;;;;25.40;52.80;;;;;;5019235;28;19917;-58
2023/07/01 13:23:09;;;;;;;;;;;25.20;52.60;;;;;;5019370;28;19934;-59
2023/07/01 13:25:34;;;;;;;;;;;25.10;53.70;;;;;;5018470;28;20431;-59
2023/07/01 13:28:03;;;;;;;;;;;25.10;54.10;;;;;;5029205;28;20526;-58
2023/07/01 13:30:34;;;;;;;;;;;25.10;54.70;;;;;;5018440;28;19910;-57
2023/07/01 13:33:02;;;;;;;;;;;25.10;53.90;;;;;;5032605;28;19917;-59
2023/07/01 13:35:27;;;;;;;;;;;25.10;54.80;;;;;;5019534;28;20020;-59
2023/07/01 13:38:04;;;;;;;;;;;25.10;55.30;;;;;;5017573;28;20396;-60
2023/07/01 13:40:29;;;;;;;;;;;25.10;55.20;;;;;;5020086;28;19956;-58
2023/07/01 13:42:55;;;;;;;;;;;24.90;55.60;;;;;;5020111;28;19951;-58
2023/07/01 13:45:25;;;;;;;;;;;24.90;55.60;;;;;;5020091;28;19949;-59
2023/07/01 13:47:50;;;;;;;;;;;24.80;56.60;;;;;;5017625;28;19910;-57
2023/07/01 13:50:20;;;;;;;;;;;24.80;56.20;;;;;;5018048;28;19919;-58
2023/07/01 13:52:46;;;;;;;;;;;24.70;56.80;;;;;;5016153;28;20365;-60
2023/07/01 13:55:11;;;;;;;;;;;24.80;57.60;;;;;;5019655;28;19968;-56
2023/07/01 13:57:37;;;;;;;;;;;24.80;57.90;;;;;;5016484;28;19912;-58
2023/07/01 14:00:20;;;;;;;;;;;24.80;59.10;;;;;;5018662;28;19921;-58
2023/07/01 14:02:45;;;;;;;;;;;24.90;57.50;;;;;;5021232;28;19912;-58
2023/07/01 14:05:12;;;;;;;;;;;25.00;59.10;;;;;;5022286;28;19909;-58
2023/07/01 14:07:38;;;;;;;;;;;25.00;58.40;;;;;;5020253;28;19905;-59
2023/07/01 14:10:05;;;;;;;;;;;25.00;58.40;;;;;;5018850;28;19909;-57
2023/07/01 14:12:30;;;;;;;;;;;25.00;58.50;;;;;;5019157;28;19960;-58
2023/07/01 14:14:56;;;;;;;;;;;24.90;58.20;;;;;;5020264;28;19924;-58